Time;durP1;ratioP1;P1;durP2;ratioP2;P2;SDS_P1;SDS_P2;PMS_P1;PMS_P2;Temp;Humidity;BMP_temperature;BMP_pressure;BME280_temperature;BME280_humidity;BME280_pressure;Samples;Min_cycle;Max_cycle;Signal;HPM_P1;HPM_P2
2023/07/14 00:01:30;;;;;;;16.98;10.00;;;16.80;99.90;;;;;;4982071;28;20035;-59
2023/07/14 00:03:56;;;;;;;14.75;9.27;;;16.40;99.90;;;;;;4980870;28;20443;-59
2023/07/14 00:06:23;;;;;;;13.23;9.45;;;;;;;;;;4986545;28;20066;-58
2023/07/14 00:08:49;;;;;;;14.43;9.80;;;15.80;99.90;;;;;;4977130;28;20047;-59
2023/07/14 00:11:18;;;;;;;16.20;9.60;;;16.90;99.90;;;;;;4982601;28;20043;-58
2023/07/14 00:13:44;;;;;;;13.07;9.52;;;16.70;99.90;;;;;;4983321;28;20030;-59
2023/07/14 00:16:20;;;;;;;13.77;9.32;;;16.80;99.90;;;;;;4974846;28;20035;-59
2023/07/14 00:18:48;;;;;;;15.95;10.35;;;16.90;99.90;;;;;;4987619;28;20035;-59
2023/07/14 00:21:18;;;;;;;13.05;9.57;;;16.20;99.90;;;;;;4985265;28;20039;-58
2023/07/14 00:23:44;;;;;;;13.63;9.48;;;17.00;99.90;;;;;;4986991;28;20030;-59
2023/07/14 00:26:20;;;;;;;15.80;9.63;;;17.10;99.90;;;;;;4983003;28;20038;-58
2023/07/14 00:28:49;;;;;;;16.15;11.15;;;17.00;99.90;;;;;;4982572;28;20046;-59
2023/07/14 00:31:17;;;;;;;14.93;9.68;;;;;;;;;;4986914;28;20514;-59
2023/07/14 00:33:46;;;;;;;13.48;9.40;;;16.80;99.90;;;;;;4983802;28;20439;-59
2023/07/14 00:36:12;;;;;;;14.77;10.60;;;16.60;99.90;;;;;;4988849;28;20512;-58
2023/07/14 00:38:38;;;;;;;16.27;11.70;;;16.60;99.90;;;;;;4981529;28;20085;-59
2023/07/14 00:41:10;;;;;;;19.00;11.23;;;16.00;99.90;;;;;;4989666;28;20114;-59
2023/07/14 00:43:37;;;;;;;16.25;9.88;;;16.50;99.90;;;;;;4979323;28;20610;-59
2023/07/14 00:46:04;;;;;;;15.55;10.23;;;16.70;99.90;;;;;;4982984;28;20523;-59
2023/07/14 00:48:30;;;;;;;15.63;9.80;;;16.90;99.90;;;;;;4980405;28;20064;-59
2023/07/14 00:51:10;;;;;;;18.17;10.57;;;16.00;1.00;;;;;;4988727;28;20038;-59
2023/07/14 00:53:40;;;;;;;16.33;10.60;;;;;;;;;;4985631;28;20416;-59
2023/07/14 00:56:12;;;;;;;18.83;11.90;;;16.60;99.90;;;;;;4988629;28;20512;-59
2023/07/14 00:58:49;;;;;;;16.48;11.35;;;16.70;99.90;;;;;;4981769;28;20100;-59
2023/07/14 01:01:22;;;;;;;19.83;10.63;;;16.40;1.00;;;;;;4981189;28;20045;-59
2023/07/14 01:03:55;;;;;;;13.48;9.57;;;16.90;1.00;;;;;;4977403;28;20100;-59
2023/07/14 01:06:31;;;;;;;16.10;10.07;;;16.50;99.90;;;;;;4984620;28;20039;-59
2023/07/14 01:09:04;;;;;;;16.23;10.88;;;16.70;1.00;;;;;;4982683;28;20517;-59
2023/07/14 01:11:52;;;;;;;14.88;10.63;;;16.60;1.00;;;;;;4983986;28;20057;-58
2023/07/14 01:14:28;;;;;;;17.27;10.35;;;16.70;1.00;;;;;;4989204;28;20076;-59
2023/07/14 01:16:57;;;;;;;17.17;10.63;;;16.40;1.00;;;;;;4979077;28;20041;-59
2023/07/14 01:19:44;;;;;;;14.60;10.93;;;16.90;99.90;;;;;;4980842;28;20133;-59
2023/07/14 01:22:12;;;;;;;14.18;10.25;;;16.40;1.00;;;;;;4978447;28;20034;-59
2023/07/14 01:24:46;;;;;;;14.75;10.25;;;16.40;1.00;;;;;;4984525;28;20326;-58
2023/07/14 01:27:12;;;;;;;14.05;10.27;;;16.40;99.90;;;;;;4986091;28;20045;-59
2023/07/14 01:29:39;;;;;;;15.18;11.32;;;16.40;1.00;;;;;;4981518;28;20126;-59
2023/07/14 01:32:13;;;;;;;18.98;10.40;;;;;;;;;;4981539;28;20042;-59
2023/07/14 01:34:39;;;;;;;13.48;10.43;;;15.80;1.00;;;;;;4985376;28;20050;-58
2023/07/14 01:37:05;;;;;;;17.55;10.52;;;16.30;1.00;;;;;;4986042;28;20109;-59
2023/07/14 01:39:30;;;;;;;17.42;11.30;;;16.40;1.00;;;;;;4986672;28;20085;-59
2023/07/14 01:41:56;;;;;;;14.05;10.10;;;16.00;1.00;;;;;;4985819;28;20121;-59
2023/07/14 01:44:23;;;;;;;16.83;10.98;;;16.90;1.00;;;;;;4984629;28;20039;-59
2023/07/14 01:46:50;;;;;;;17.80;12.48;;;16.70;1.00;;;;;;4990006;28;20038;-58
2023/07/14 01:49:28;;;;;;;18.10;11.63;;;15.80;1.00;;;;;;4981350;28;20096;-59
2023/07/14 01:51:58;;;;;;;17.75;13.20;;;16.00;1.00;;;;;;4990379;28;20512;-59
2023/07/14 01:54:38;;;;;;;21.40;13.32;;;16.10;1.00;;;;;;4981088;28;20074;-59
2023/07/14 01:57:07;;;;;;;18.40;11.68;;;;;;;;;;4984384;28;20172;-59
2023/07/14 01:59:36;;;;;;;16.08;12.02;;;15.40;1.00;;;;;;4984066;28;20548;-59
2023/07/14 02:02:03;;;;;;;16.70;11.73;;;;;;;;;;4975436;28;20042;-59
2023/07/14 02:04:37;;;;;;;15.93;11.00;;;16.60;1.00;;;;;;4985338;28;20515;-59
2023/07/14 02:07:03;;;;;;;16.98;11.85;;;15.90;1.00;;;;;;4979374;28;20142;-59
2023/07/14 02:09:30;;;;;;;20.20;11.50;;;15.70;1.00;;;;;;4988543;28;20147;-58
2023/07/14 02:12:06;;;;;;;16.20;11.25;;;;;;;;;;4982620;28;20038;-59
2023/07/14 02:14:42;;;;;;;17.90;11.82;;;15.70;1.00;;;;;;4981833;28;20046;-59
2023/07/14 02:17:24;;;;;;;17.23;11.57;;;;;;;;;;4981606;28;20035;-59
2023/07/14 02:19:51;;;;;;;18.63;11.68;;;16.60;1.00;;;;;;4982769;28;20495;-59
2023/07/14 02:22:18;;;;;;;17.08;11.98;;;15.90;1.00;;;;;;4981629;28;20499;-59
2023/07/14 02:24:45;;;;;;;17.70;11.65;;;;;;;;;;4981149;28;20041;-59
2023/07/14 02:27:12;;;;;;;15.45;11.55;;;16.00;1.00;;;;;;4983585;28;20035;-59
2023/07/14 02:29:38;;;;;;;16.13;11.27;;;16.00;1.00;;;;;;4985280;28;20038;-59
2023/07/14 02:32:14;;;;;;;17.35;10.35;;;15.90;1.00;;;;;;4988829;28;20390;-58
2023/07/14 02:34:45;;;;;;;20.20;11.75;;;16.00;1.00;;;;;;4989575;28;20062;-58
2023/07/14 02:37:44;;;;;;;16.58;10.30;;;16.00;1.00;;;;;;4991106;28;20034;-59
2023/07/14 02:40:12;;;;;;;16.15;10.20;;;;;;;;;;4984705;28;20069;-58
2023/07/14 02:42:39;;;;;;;15.70;10.23;;;;;;;;;;4989129;28;20045;-59
2023/07/14 02:45:05;;;;;;;16.48;10.50;;;16.20;1.00;;;;;;4990706;28;20102;-59
2023/07/14 02:47:35;;;;;;;15.68;9.85;;;;;;;;;;4984895;28;20042;-59
2023/07/14 02:50:00;;;;;;;16.33;9.88;;;15.80;1.00;;;;;;4983366;28;20045;-58
2023/07/14 02:52:26;;;;;;;13.93;8.25;;;15.70;1.00;;;;;;4992700;28;20416;-59
2023/07/14 02:54:52;;;;;;;14.82;9.70;;;15.70;1.00;;;;;;4990623;28;20396;-59
2023/07/14 02:57:18;;;;;;;14.60;9.85;;;15.20;1.00;;;;;;4984933;28;20038;-59
2023/07/14 02:59:43;;;;;;;13.20;9.50;;;15.70;1.00;;;;;;4988022;28;20034;-59
2023/07/14 03:02:09;;;;;;;13.52;8.80;;;15.30;1.00;;;;;;4984229;28;20073;-59
2023/07/14 03:04:35;;;;;;;17.73;9.63;;;;;;;;;;4979972;28;20122;-59
2023/07/14 03:07:01;;;;;;;15.00;9.57;;;15.60;1.00;;;;;;4981195;28;20538;-59
2023/07/14 03:09:27;;;;;;;14.77;9.30;;;15.70;1.00;;;;;;4979711;28;20046;-59
2023/07/14 03:11:53;;;;;;;14.90;9.25;;;15.60;1.00;;;;;;4983236;28;20097;-59
2023/07/14 03:14:19;;;;;;;13.68;9.10;;;15.50;1.00;;;;;;4988723;28;20049;-58
2023/07/14 03:16:44;;;;;;;13.88;8.88;;;15.50;1.00;;;;;;4978999;28;20038;-59
2023/07/14 03:19:10;;;;;;;12.27;8.48;;;15.30;1.00;;;;;;4974559;28;20050;-59
2023/07/14 03:21:36;;;;;;;17.65;8.32;;;16.20;1.00;;;;;;4987716;28;20408;-59
2023/07/14 03:24:02;;;;;;;13.00;8.60;;;;;;;;;;4980147;28;20073;-59
2023/07/14 03:26:27;;;;;;;15.82;8.88;;;15.30;1.00;;;;;;4984771;28;20115;-59
2023/07/14 03:28:53;;;;;;;14.48;8.50;;;15.30;1.00;;;;;;4981344;28;20043;-59
2023/07/14 03:31:20;;;;;;;13.38;7.00;;;;;;;;;;4986907;28;20468;-59
2023/07/14 03:33:46;;;;;;;14.63;8.07;;;15.40;1.00;;;;;;4978515;28;20335;-59
2023/07/14 03:36:13;;;;;;;16.25;8.05;;;15.10;1.00;;;;;;4975780;28;20039;-59
2023/07/14 03:38:42;;;;;;;17.95;8.60;;;15.40;1.00;;;;;;4986620;28;20496;-59
2023/07/14 03:41:09;;;;;;;18.58;8.60;;;15.90;1.00;;;;;;4989216;28;20088;-59
2023/07/14 03:43:34;;;;;;;13.18;8.02;;;15.20;1.00;;;;;;4984415;28;20054;-59
2023/07/14 03:46:00;;;;;;;13.32;7.35;;;15.00;1.00;;;;;;4982278;28;20122;-59
2023/07/14 03:48:26;;;;;;;12.00;7.63;;;15.00;1.00;;;;;;4989646;28;20042;-58
2023/07/14 03:50:52;;;;;;;13.98;7.15;;;;;;;;;;4973118;28;20042;-58
2023/07/14 03:53:17;;;;;;;13.15;7.32;;;15.40;1.00;;;;;;4981303;28;20321;-59
2023/07/14 03:55:46;;;;;;;12.88;7.15;;;15.30;1.00;;;;;;4982032;28;20073;-59
2023/07/14 03:58:12;;;;;;;13.68;8.05;;;15.30;1.00;;;;;;4983069;28;20047;-59
2023/07/14 04:00:37;;;;;;;12.10;6.60;;;15.00;1.00;;;;;;4981748;28;20035;-59
2023/07/14 04:03:04;;;;;;;12.05;6.75;;;15.10;1.00;;;;;;4990982;28;20042;-58
2023/07/14 04:05:30;;;;;;;9.80;5.72;;;;;;;;;;4987301;28;20119;-58
2023/07/14 04:07:56;;;;;;;11.80;6.05;;;15.00;1.00;;;;;;4986132;28;20034;-59
2023/07/14 04:10:22;;;;;;;14.38;7.40;;;15.20;1.00;;;;;;4978998;28;20109;-59
2023/07/14 04:12:49;;;;;;;11.75;6.30;;;;;;;;;;4981967;28;20068;-59
2023/07/14 04:15:15;;;;;;;11.65;6.93;;;;;;;;;;4989808;28;20605;-59
2023/07/14 04:17:41;;;;;;;10.70;6.75;;;15.30;1.00;;;;;;4982337;28;20691;-59
2023/07/14 04:20:07;;;;;;;15.18;6.47;;;15.30;1.00;;;;;;4983891;28;20046;-59
2023/07/14 04:22:34;;;;;;;11.73;7.35;;;;;;;;;;4987743;28;20049;-59
2023/07/14 04:24:59;;;;;;;13.75;6.50;;;15.30;1.00;;;;;;4980644;28;20039;-59
2023/07/14 04:27:26;;;;;;;11.20;6.93;;;;;;;;;;4987972;28;20569;-58
2023/07/14 04:29:52;;;;;;;12.38;7.25;;;15.40;1.00;;;;;;4985907;28;20500;-59
2023/07/14 04:32:18;;;;;;;13.32;6.80;;;;;;;;;;4990746;28;20038;-59
2023/07/14 04:34:44;;;;;;;10.65;7.13;;;;;;;;;;4988056;28;20042;-58
2023/07/14 04:37:10;;;;;;;13.75;7.75;;;;;;;;;;4987874;28;20091;-59
2023/07/14 04:39:36;;;;;;;14.18;7.35;;;15.40;1.00;;;;;;4978132;28;20112;-59
2023/07/14 04:42:03;;;;;;;11.45;7.57;;;;;;;;;;4984152;28;20060;-57
2023/07/14 04:44:29;;;;;;;15.13;7.03;;;15.30;1.00;;;;;;4985151;28;20134;-59
2023/07/14 04:46:58;;;;;;;15.80;7.15;;;;;;;;;;4977470;28;20038;-58
2023/07/14 04:49:24;;;;;;;12.18;6.55;;;15.20;1.00;;;;;;4975980;28;20096;-59
2023/07/14 04:51:50;;;;;;;12.40;7.25;;;15.00;1.00;;;;;;4985303;28;20031;-59
2023/07/14 04:54:15;;;;;;;12.23;6.97;;;15.40;1.00;;;;;;4986761;28;20047;-59
2023/07/14 04:56:43;;;;;;;16.10;7.20;;;15.40;1.00;;;;;;4977022;28;20070;-59
2023/07/14 04:59:10;;;;;;;15.02;7.85;;;;;;;;;;4981815;28;20042;-59
2023/07/14 05:01:36;;;;;;;15.73;7.85;;;15.60;1.00;;;;;;4978226;28;20053;-59
2023/07/14 05:04:02;;;;;;;14.70;8.07;;;;;;;;;;4976005;28;20034;-59
2023/07/14 05:06:28;;;;;;;13.75;7.63;;;15.50;1.00;;;;;;4975173;28;20038;-59
2023/07/14 05:08:54;;;;;;;17.38;7.43;;;15.50;1.00;;;;;;4973515;28;20512;-59
2023/07/14 05:11:19;;;;;;;12.40;6.70;;;16.10;1.00;;;;;;4979511;28;20042;-58
2023/07/14 05:13:46;;;;;;;12.45;7.40;;;;;;;;;;4986250;28;20053;-59
2023/07/14 05:16:12;;;;;;;15.25;7.65;;;15.10;1.00;;;;;;4977526;28;20122;-58
2023/07/14 05:18:37;;;;;;;15.65;7.93;;;16.40;1.00;;;;;;4984861;28;20122;-59
2023/07/14 05:21:06;;;;;;;15.18;7.22;;;16.00;1.00;;;;;;4980210;28;20061;-58
2023/07/14 05:23:33;;;;;;;15.32;7.40;;;;;;;;;;4988015;28;20053;-59
2023/07/14 05:25:59;;;;;;;14.38;7.93;;;;;;;;;;4983241;28;20176;-59
2023/07/14 05:28:25;;;;;;;11.85;7.22;;;15.70;1.00;;;;;;4982778;28;20043;-59
2023/07/14 05:30:51;;;;;;;13.20;6.60;;;;;;;;;;4982748;28;20401;-59
2023/07/14 05:33:18;;;;;;;14.43;6.93;;;;;;;;;;4985935;28;20053;-59
2023/07/14 05:35:45;;;;;;;12.60;6.97;;;15.50;1.00;;;;;;4986154;28;20042;-59
2023/07/14 05:38:11;;;;;;;15.57;7.18;;;;;;;;;;4985436;28;20053;-58
2023/07/14 05:40:37;;;;;;;10.68;6.47;;;15.50;1.00;;;;;;4986682;28;20057;-59
2023/07/14 05:43:04;;;;;;;11.40;6.88;;;;;;;;;;4982560;28;20053;-58
2023/07/14 05:45:29;;;;;;;10.88;6.30;;;16.40;1.00;;;;;;4984529;28;20185;-59
2023/07/14 05:47:55;;;;;;;12.48;5.90;;;16.60;1.00;;;;;;4988711;28;20117;-59
2023/07/14 05:50:21;;;;;;;11.23;6.40;;;;;;;;;;4986252;28;20046;-59
2023/07/14 05:52:47;;;;;;;11.27;6.30;;;16.40;1.00;;;;;;4978868;28;20082;-59
2023/07/14 05:55:14;;;;;;;15.13;7.05;;;;;;;;;;4984537;28;20066;-59
2023/07/14 05:57:40;;;;;;;13.27;6.72;;;16.60;1.00;;;;;;4978825;28;21482;-59
2023/07/14 06:00:16;;;;;;;11.13;5.85;;;16.40;1.00;;;;;;4980704;28;20113;-60
2023/07/14 06:02:43;;;;;;;10.93;6.05;;;16.60;1.00;;;;;;4988293;28;20077;-60
2023/07/14 06:05:09;;;;;;;12.65;6.97;;;;;;;;;;4983987;28;20038;-60
2023/07/14 06:07:36;;;;;;;10.68;6.07;;;;;;;;;;4986429;28;20030;-60
2023/07/14 06:10:02;;;;;;;11.50;6.07;;;16.90;1.00;;;;;;4989826;28;20054;-60
2023/07/14 06:12:28;;;;;;;14.20;6.53;;;;;;;;;;4983825;28;20173;-60
2023/07/14 06:14:53;;;;;;;10.13;5.90;;;16.90;1.00;;;;;;4983691;28;20101;-60
2023/07/14 06:17:19;;;;;;;11.45;5.57;;;17.10;1.00;;;;;;4977205;28;20039;-60
2023/07/14 06:19:45;;;;;;;10.85;5.20;;;17.10;1.00;;;;;;4976911;28;20045;-60
2023/07/14 06:22:11;;;;;;;12.00;5.00;;;17.30;1.00;;;;;;4972810;28;20085;-60
2023/07/14 06:24:37;;;;;;;10.95;5.18;;;17.30;1.00;;;;;;4985611;28;20518;-60
2023/07/14 06:27:05;;;;;;;12.77;5.68;;;17.20;1.00;;;;;;4977846;28;20483;-59
2023/07/14 06:29:32;;;;;;;8.55;5.45;;;18.80;99.90;;;;;;4980819;28;20129;-59
2023/07/14 06:31:58;;;;;;;9.85;5.40;;;17.70;99.90;;;;;;4982573;28;20042;-60
2023/07/14 06:34:24;;;;;;;12.15;6.20;;;18.20;99.90;;;;;;4978372;28;20050;-59
2023/07/14 06:36:50;;;;;;;10.95;5.70;;;17.60;99.90;;;;;;4988002;28;20046;-60
2023/07/14 06:39:17;;;;;;;10.57;5.70;;;17.60;99.90;;;;;;4986239;28;20048;-60
2023/07/14 06:41:43;;;;;;;12.98;5.57;;;17.50;99.90;;;;;;4985872;28;20030;-58
2023/07/14 06:44:09;;;;;;;11.43;5.60;;;17.60;99.90;;;;;;4986346;28;20038;-60
2023/07/14 06:46:35;;;;;;;9.32;5.43;;;17.80;99.90;;;;;;4988984;28;20492;-59
2023/07/14 06:49:03;;;;;;;11.77;5.93;;;17.60;99.90;;;;;;4980323;28;20041;-60
2023/07/14 06:51:29;;;;;;;12.07;5.85;;;17.40;99.90;;;;;;4987800;28;20053;-59
2023/07/14 06:53:54;;;;;;;14.35;5.32;;;18.00;99.90;;;;;;4973813;28;20065;-58
2023/07/14 06:56:20;;;;;;;14.57;5.20;;;18.00;99.90;;;;;;4987807;28;20486;-60
2023/07/14 06:58:46;;;;;;;10.55;5.20;;;17.80;99.90;;;;;;4986691;28;20050;-60
2023/07/14 07:01:14;;;;;;;11.13;5.20;;;18.20;99.90;;;;;;4985283;28;20030;-60
2023/07/14 07:03:40;;;;;;;10.32;5.45;;;;;;;;;;4987056;28;20030;-59
2023/07/14 07:06:06;;;;;;;9.30;5.05;;;18.10;99.90;;;;;;4978972;28;20092;-60
2023/07/14 07:08:32;;;;;;;9.93;5.00;;;18.30;99.90;;;;;;4985763;28;20042;-59
2023/07/14 07:10:59;;;;;;;11.65;5.28;;;18.30;99.90;;;;;;4982144;28;20129;-60
2023/07/14 07:13:25;;;;;;;9.35;5.15;;;;;;;;;;4991259;28;20104;-59
2023/07/14 07:15:51;;;;;;;10.35;5.70;;;18.40;99.90;;;;;;4977936;28;21995;-60
2023/07/14 07:18:20;;;;;;;8.50;5.22;;;18.20;99.90;;;;;;4989916;28;20129;-60
2023/07/14 07:20:45;;;;;;;9.68;4.93;;;18.10;99.90;;;;;;4992780;28;20042;-60
2023/07/14 07:23:11;;;;;;;7.75;4.03;;;18.40;99.90;;;;;;4983419;28;20026;-60
2023/07/14 07:25:37;;;;;;;8.02;4.57;;;18.60;99.90;;;;;;4992353;28;20073;-59
2023/07/14 07:28:03;;;;;;;9.27;4.60;;;18.40;99.90;;;;;;5000518;28;20080;-60
2023/07/14 07:30:31;;;;;;;9.75;4.35;;;17.80;99.90;;;;;;4992808;28;20039;-61
2023/07/14 07:32:58;;;;;;;9.18;4.40;;;18.40;99.90;;;;;;4989633;28;20404;-60
2023/07/14 07:35:24;;;;;;;8.73;4.20;;;;;;;;;;4986791;28;20121;-60
2023/07/14 07:37:50;;;;;;;8.05;3.92;;;18.00;69.90;;;;;;4984989;28;20046;-60
2023/07/14 07:40:17;;;;;;;11.25;3.60;;;19.00;11.10;;;;;;4990836;28;20138;-60
2023/07/14 07:42:43;;;;;;;8.60;3.65;;;18.40;1.00;;;;;;4991960;28;20097;-60
2023/07/14 07:45:09;;;;;;;8.88;3.83;;;18.40;1.00;;;;;;4992342;28;20034;-60
2023/07/14 07:47:35;;;;;;;7.32;4.00;;;18.50;1.00;;;;;;4990936;28;20038;-60
2023/07/14 07:50:01;;;;;;;9.70;3.92;;;18.50;1.00;;;;;;4991617;28;20112;-61
2023/07/14 07:52:26;;;;;;;7.82;3.55;;;19.20;1.00;;;;;;4987396;28;20038;-60
2023/07/14 07:54:52;;;;;;;9.48;3.55;;;18.10;1.00;;;;;;4981442;28;20627;-61
2023/07/14 07:57:18;;;;;;;8.98;4.20;;;18.70;1.00;;;;;;4984751;28;20034;-61
2023/07/14 07:59:44;;;;;;;7.22;3.97;;;19.00;1.00;;;;;;4990811;28;20038;-60
2023/07/14 08:02:12;;;;;;;8.70;3.83;;;18.70;1.00;;;;;;4990119;28;20483;-60
2023/07/14 08:04:38;;;;;;;8.02;3.67;;;19.30;1.00;;;;;;4991454;28;20062;-60
2023/07/14 08:07:13;;;;;;;8.35;3.88;;;19.10;1.00;;;;;;4986515;28;20108;-60
2023/07/14 08:09:39;;;;;;;8.52;3.88;;;;;;;;;;4983709;28;20042;-60
2023/07/14 08:12:05;;;;;;;8.73;3.70;;;19.60;1.00;;;;;;4988853;28;20034;-60
2023/07/14 08:14:32;;;;;;;8.27;4.93;;;19.70;1.00;;;;;;4977393;28;20047;-60
2023/07/14 08:16:58;;;;;;;8.88;4.43;;;19.20;1.00;;;;;;4981955;28;20053;-60
2023/07/14 08:19:24;;;;;;;7.88;3.97;;;19.20;1.00;;;;;;4988200;28;20527;-60
2023/07/14 08:21:49;;;;;;;9.55;3.97;;;19.80;1.00;;;;;;4979366;28;20035;-60
2023/07/14 08:24:15;;;;;;;7.47;3.00;;;19.60;1.00;;;;;;4995289;28;20030;-60
2023/07/14 08:26:41;;;;;;;9.95;3.33;;;19.00;99.90;;;;;;4982414;28;20088;-60
2023/07/14 08:29:08;;;;;;;7.82;3.80;;;18.90;99.90;;;;;;4988492;28;20100;-60
2023/07/14 08:31:34;;;;;;;8.48;3.38;;;19.20;99.90;;;;;;4991324;28;20060;-60
2023/07/14 08:34:00;;;;;;;8.45;3.08;;;18.50;99.90;;;;;;4985997;28;20038;-60
2023/07/14 08:36:26;;;;;;;8.80;3.45;;;18.80;99.90;;;;;;4989074;28;20117;-60
2023/07/14 08:38:54;;;;;;;9.55;4.10;;;18.50;99.90;;;;;;4986653;28;20040;-59
2023/07/14 08:41:38;;;;;;;8.82;3.30;;;19.60;99.90;;;;;;4983306;28;20034;-59
2023/07/14 08:44:08;;;;;;;9.35;3.00;;;;;;;;;;4987378;28;20137;-60
2023/07/14 08:46:42;;;;;;;6.22;3.05;;;19.00;99.90;;;;;;4983013;28;20073;-60
2023/07/14 08:49:20;;;;;;;9.98;3.83;;;18.60;99.90;;;;;;4988013;28;20043;-60
2023/07/14 08:51:53;;;;;;;7.75;3.42;;;19.10;99.90;;;;;;4984292;28;20047;-60
2023/07/14 08:54:24;;;;;;;7.95;3.15;;;18.90;99.90;;;;;;4977280;28;20119;-61
2023/07/14 08:56:52;;;;;;;6.50;3.20;;;19.70;99.90;;;;;;4982902;28;20035;-59
2023/07/14 08:59:27;;;;;;;9.00;3.70;;;18.50;99.90;;;;;;4991022;28;20071;-60
2023/07/14 09:01:56;;;;;;;9.02;3.20;;;19.10;99.90;;;;;;4990261;28;20412;-58
2023/07/14 09:04:32;;;;;;;7.18;3.72;;;18.80;99.90;;;;;;4988781;28;20122;-59
2023/07/14 09:06:57;;;;;;;6.70;3.55;;;19.70;99.90;;;;;;4980023;28;20038;-60
2023/07/14 09:09:34;;;;;;;7.05;3.30;;;19.30;96.10;;;;;;4985777;28;20045;-60
2023/07/14 09:12:12;;;;;;;7.20;3.15;;;19.40;99.90;;;;;;4987940;28;20038;-60
2023/07/14 09:14:51;;;;;;;7.18;3.17;;;20.00;99.90;;;;;;4981150;28;20408;-60
2023/07/14 09:17:22;;;;;;;7.30;3.38;;;19.60;99.90;;;;;;4977154;28;20050;-60
2023/07/14 09:19:59;;;;;;;8.30;2.92;;;19.60;99.90;;;;;;4985181;28;20089;-60
2023/07/14 09:22:39;;;;;;;7.82;3.08;;;19.70;99.90;;;;;;4985543;28;20042;-60
2023/07/14 09:25:18;;;;;;;7.28;3.13;;;19.50;99.90;;;;;;4988099;28;20113;-60
2023/07/14 09:27:46;;;;;;;6.82;2.70;;;19.70;99.90;;;;;;4984727;28;20571;-60
2023/07/14 09:30:23;;;;;;;6.78;2.55;;;19.60;99.90;;;;;;4975760;28;20042;-60
2023/07/14 09:32:54;;;;;;;8.13;2.33;;;19.80;1.40;;;;;;4986690;28;20504;-60
2023/07/14 09:35:25;;;;;;;7.07;2.60;;;20.30;11.40;;;;;;4983968;28;20062;-59
2023/07/14 09:38:10;;;;;;;8.70;2.80;;;19.90;1.00;;;;;;4978671;28;20041;-58
2023/07/14 09:40:40;;;;;;;6.85;2.47;;;19.80;1.00;;;;;;4985148;28;20043;-60
2023/07/14 09:43:06;;;;;;;6.55;2.13;;;20.20;99.90;;;;;;4986235;28;20459;-60
2023/07/14 09:45:35;;;;;;;7.88;3.08;;;20.30;99.90;;;;;;4981965;28;20038;-59
2023/07/14 09:48:17;;;;;;;6.13;2.55;;;19.90;99.90;;;;;;4985168;28;20117;-59
2023/07/14 09:51:15;;;;;;;6.38;1.98;;;20.10;99.90;;;;;;4979050;28;20071;-60
2023/07/14 09:54:07;;;;;;;8.30;2.95;;;20.30;1.00;;;;;;4982316;28;20108;-60
2023/07/14 09:56:38;;;;;;;6.85;2.65;;;20.10;1.00;;;;;;4980055;28;20100;-60
2023/07/14 09:59:07;;;;;;;8.70;2.80;;;20.00;1.00;;;;;;4985978;28;20042;-60
2023/07/14 10:01:33;;;;;;;7.28;2.45;;;20.20;1.00;;;;;;4981098;28;20074;-60
2023/07/14 10:04:11;;;;;;;7.28;2.65;;;20.30;1.00;;;;;;4983828;28;20038;-60
2023/07/14 10:06:36;;;;;;;8.05;2.97;;;20.40;15.30;;;;;;4981178;28;20039;-59
2023/07/14 10:09:10;;;;;;;8.63;3.22;;;21.10;1.00;;;;;;4978538;28;20041;-60
2023/07/14 10:11:40;;;;;;;7.07;3.33;;;20.30;1.00;;;;;;4984598;28;20511;-59
2023/07/14 10:14:25;;;;;;;8.40;3.47;;;20.50;1.00;;;;;;4986029;28;20380;-60
2023/07/14 10:16:53;;;;;;;7.03;3.63;;;20.40;27.50;;;;;;4978747;28;20053;-60
2023/07/14 10:19:21;;;;;;;9.77;3.90;;;20.50;78.30;;;;;;4978173;28;20475;-60
2023/07/14 10:21:59;;;;;;;7.55;3.30;;;20.50;88.80;;;;;;4982910;28;20101;-59
2023/07/14 10:24:27;;;;;;;11.27;3.97;;;21.00;93.10;;;;;;4985746;28;20399;-60
2023/07/14 10:26:57;;;;;;;9.05;3.40;;;21.70;88.20;;;;;;4987986;28;20104;-60
2023/07/14 10:29:26;;;;;;;7.25;3.45;;;21.20;99.90;;;;;;4975535;28;20042;-60
2023/07/14 10:32:01;;;;;;;8.93;3.92;;;20.90;7.60;;;;;;4986074;28;20100;-60
2023/07/14 10:34:49;;;;;;;7.50;3.63;;;22.00;1.00;;;;;;4979329;28;20112;-60
2023/07/14 10:37:24;;;;;;;7.35;4.22;;;21.20;1.00;;;;;;4977589;28;20462;-60
2023/07/14 10:40:05;;;;;;;11.70;3.95;;;22.50;99.90;;;;;;4983031;28;20052;-60
2023/07/14 10:42:35;;;;;;;7.72;3.50;;;22.00;99.90;;;;;;4980632;28;20049;-60
2023/07/14 10:45:02;;;;;;;8.32;4.00;;;22.30;99.90;;;;;;4985025;28;20077;-60
2023/07/14 10:47:36;;;;;;;9.93;4.45;;;22.60;99.90;;;;;;4982370;28;20042;-60
2023/07/14 10:50:11;;;;;;;;;;;22.10;99.90;;;;;;4984763;28;20034;-60
2023/07/14 10:52:41;;;;;;;9.20;4.70;;;21.50;99.90;;;;;;4979516;28;19925;-60
2023/07/14 10:55:31;;;;;;;9.02;5.18;;;22.20;99.90;;;;;;4985274;28;20035;-59
2023/07/14 10:57:59;;;;;;;9.75;4.80;;;21.80;1.00;;;;;;4984696;28;20418;-59
2023/07/14 11:00:34;;;;;;;12.77;4.78;;;21.90;1.00;;;;;;4990840;28;20041;-58
2023/07/14 11:03:09;;;;;;;9.50;4.95;;;21.50;1.00;;;;;;4989653;28;20056;-58
2023/07/14 11:05:35;;;;;;;8.57;4.00;;;21.70;1.00;;;;;;4989910;28;20116;-58
2023/07/14 11:08:01;;;;;;;7.93;3.63;;;21.10;1.00;;;;;;4984870;28;20480;-59
2023/07/14 11:10:42;;;;;;;7.60;4.22;;;20.90;1.00;;;;;;4987664;28;20117;-59
2023/07/14 11:13:29;;;;;;;8.85;4.22;;;21.80;99.90;;;;;;4981786;28;20034;-58
2023/07/14 11:16:01;;;;;;;7.15;3.53;;;21.70;99.90;;;;;;4972595;28;20044;-58
2023/07/14 11:18:41;;;;;;;9.50;3.83;;;21.40;99.90;;;;;;4989453;28;20538;-58
2023/07/14 11:21:31;;;;;;;8.15;3.40;;;21.30;99.90;;;;;;4979914;28;20042;-60
2023/07/14 11:24:12;;;;;;;6.80;3.25;;;22.30;99.90;;;;;;4985364;28;20047;-58
2023/07/14 11:27:02;;;;;;;8.38;3.97;;;22.20;99.90;;;;;;4986493;28;20038;-60
2023/07/14 11:29:34;;;;;;;7.15;3.60;;;22.30;99.90;;;;;;4951654;28;20055;-59
2023/07/14 11:32:02;;;;;;;11.55;3.60;;;22.20;99.90;;;;;;4980222;28;20042;-60
2023/07/14 11:34:36;;;;;;;5.53;2.58;;;21.50;99.90;;;;;;4985677;28;20117;-59
2023/07/14 11:37:29;;;;;;;8.70;3.78;;;22.30;99.90;;;;;;4985860;28;20381;-60
2023/07/14 11:39:58;;;;;;;7.28;3.58;;;22.40;99.90;;;;;;4982314;28;20042;-60
2023/07/14 11:42:32;;;;;;;9.52;3.78;;;22.70;99.90;;;;;;4984435;28;20073;-59
2023/07/14 11:45:01;;;;;;;8.68;4.40;;;22.70;99.90;;;;;;4988082;28;20566;-60
2023/07/14 11:47:38;;;;;;;9.98;4.20;;;22.50;99.90;;;;;;4978785;28;20030;-59
2023/07/14 11:50:19;;;;;;;9.45;4.03;;;22.70;99.90;;;;;;4987510;28;20049;-59
2023/07/14 11:52:57;;;;;;;9.13;4.25;;;22.50;99.90;;;;;;4979627;28;20484;-60
2023/07/14 11:55:27;;;;;;;8.93;4.35;;;22.80;99.90;;;;;;4982246;28;20046;-59
2023/07/14 11:58:04;;;;;;;7.85;3.97;;;;;;;;;;4978515;28;20073;-59
2023/07/14 12:00:47;;;;;;;9.45;4.28;;;22.20;99.90;;;;;;4985557;28;20034;-57
2023/07/14 12:03:30;;;;;;;13.48;5.40;;;22.40;99.90;;;;;;4988503;28;20584;-59
2023/07/14 12:06:17;;;;;;;8.38;5.43;;;22.50;99.90;;;;;;4979654;28;20055;-59
2023/07/14 12:08:44;;;;;;;9.30;4.75;;;22.60;99.90;;;;;;4985219;28;20046;-59
2023/07/14 12:11:26;;;;;;;12.88;6.65;;;22.70;99.90;;;;;;4990530;28;20038;-61
2023/07/14 12:13:52;;;;;;;10.85;5.40;;;22.80;99.90;;;;;;4987851;28;20046;-62
2023/07/14 12:16:22;;;;;;;10.13;5.97;;;22.50;99.90;;;;;;4982428;28;20500;-62
2023/07/14 12:18:56;;;;;;;11.65;5.75;;;23.00;99.90;;;;;;4991551;28;20049;-63
2023/07/14 12:21:44;;;;;;;11.38;5.82;;;22.80;99.90;;;;;;4982860;28;20125;-63
2023/07/14 12:24:17;;;;;;;11.48;5.53;;;22.60;99.90;;;;;;4990709;28;20404;-62
2023/07/14 12:26:57;;;;;;;8.48;5.22;;;22.70;99.90;;;;;;4980393;28;20500;-62
2023/07/14 12:29:23;;;;;;;10.43;4.88;;;22.70;99.90;;;;;;4990280;28;20117;-63
2023/07/14 12:31:54;;;;;;;11.40;5.90;;;22.50;99.90;;;;;;4990402;28;20496;-63
2023/07/14 12:34:23;;;;;;;9.63;5.47;;;22.70;99.90;;;;;;4981460;28;20034;-62
2023/07/14 12:36:49;;;;;;;12.93;6.50;;;22.80;99.90;;;;;;4985490;28;20042;-61
2023/07/14 12:39:16;;;;;;;11.32;6.00;;;22.50;99.90;;;;;;4981001;28;20046;-61
2023/07/14 12:41:46;;;;;;;9.60;4.80;;;22.90;99.90;;;;;;4985865;28;20038;-62
2023/07/14 12:44:31;;;;;;;12.85;6.10;;;23.40;99.90;;;;;;4987255;28;20515;-62
2023/07/14 12:46:58;;;;;;;10.75;5.97;;;22.80;99.90;;;;;;4990504;28;20049;-62
2023/07/14 12:49:31;;;;;;;10.25;5.60;;;22.80;99.90;;;;;;4979836;28;20074;-62
2023/07/14 12:51:58;;;;;;;11.10;5.78;;;22.50;99.90;;;;;;4990452;28;20396;-62
2023/07/14 12:54:27;;;;;;;10.35;6.00;;;21.30;99.90;;;;;;4982276;28;21644;-62
2023/07/14 12:57:00;;;;;;;10.73;5.55;;;22.20;99.90;;;;;;4986809;28;20076;-62
2023/07/14 12:59:26;;;;;;;8.93;5.18;;;22.10;99.90;;;;;;4982177;28;20627;-61
2023/07/14 13:01:53;;;;;;;10.20;5.88;;;22.40;99.90;;;;;;4980036;28;20042;-62
2023/07/14 13:04:21;;;;;;;9.18;5.25;;;22.10;99.90;;;;;;4977915;28;20136;-61
2023/07/14 13:06:58;;;;;;;10.07;5.63;;;21.60;99.90;;;;;;4977038;28;20042;-61
2023/07/14 13:09:26;;;;;;;11.10;5.05;;;22.20;99.90;;;;;;4982648;28;20134;-62
2023/07/14 13:11:53;;;;;;;10.25;5.18;;;22.20;99.90;;;;;;4980119;28;20042;-62